Time;durP1;ratioP1;P1;durP2;ratioP2;P2;SDS_P1;SDS_P2;PMS_P1;PMS_P2;Temp;Humidity;BMP_temperature;BMP_pressure;BME280_temperature;BME280_humidity;BME280_pressure;Samples;Min_cycle;Max_cycle;Signal;HPM_P1;HPM_P2
2023/08/25 00:02:15;;;;;;;3.80;3.22;;;23.40;85.10;;;;;;5063033;28;20780;-31
2023/08/25 00:04:42;;;;;;;4.30;3.28;;;23.40;88.90;;;;;;5073826;28;20044;-31
2023/08/25 00:07:09;;;;;;;4.28;3.60;;;;;;;;;;5073736;28;20061;-30
2023/08/25 00:09:36;;;;;;;4.30;3.47;;;23.10;88.90;;;;;;5074055;28;20131;-30
2023/08/25 00:12:04;;;;;;;4.13;3.42;;;;;;;;;;5073763;28;20066;-35
2023/08/25 00:14:30;;;;;;;6.10;3.83;;;22.20;89.20;;;;;;5072521;28;20045;-31
2023/08/25 00:16:58;;;;;;;6.05;3.45;;;;;;;;;;5053803;28;20092;-33
2023/08/25 00:19:26;;;;;;;3.92;3.50;;;21.70;88.80;;;;;;5053613;28;20525;-32
2023/08/25 00:21:53;;;;;;;4.18;3.38;;;;;;;;;;5064080;28;20080;-31
2023/08/25 00:24:20;;;;;;;4.43;3.50;;;21.80;88.80;;;;;;5073633;28;20127;-31
2023/08/25 00:26:48;;;;;;;7.18;3.75;;;;;;;;;;5073398;28;20056;-31
2023/08/25 00:29:14;;;;;;;4.90;4.05;;;21.80;88.10;;;;;;5065284;28;20555;-31
2023/08/25 00:31:41;;;;;;;3.58;3.10;;;22.10;85.70;;;;;;5053281;28;20043;-31
2023/08/25 00:34:08;;;;;;;3.80;3.10;;;;;;;;;;5053361;28;20137;-34
2023/08/25 00:36:36;;;;;;;4.28;3.30;;;22.00;77.40;;;;;;5059316;28;20048;-32
2023/08/25 00:39:03;;;;;;;4.55;3.83;;;22.30;86.70;;;;;;5073410;28;20048;-31
2023/08/25 00:41:30;;;;;;;3.60;3.20;;;;;;;;;;5073120;28;20127;-32
2023/08/25 00:43:57;;;;;;;4.38;3.35;;;;;;;;;;5058071;28;20139;-33
2023/08/25 00:46:24;;;;;;;4.15;3.50;;;;;;;;;;5053375;28;20124;-31
2023/08/25 00:48:51;;;;;;;3.88;3.40;;;23.30;88.80;;;;;;5052973;28;20157;-31
2023/08/25 00:51:18;;;;;;;3.55;3.25;;;22.10;89.10;;;;;;5053216;28;20132;-30
2023/08/25 00:53:46;;;;;;;6.10;3.38;;;22.10;77.70;;;;;;5052596;28;20052;-31
2023/08/25 00:56:13;;;;;;;4.88;3.60;;;21.30;76.70;;;;;;5053174;28;20135;-31
2023/08/25 00:58:40;;;;;;;4.22;3.20;;;22.00;88.50;;;;;;5063850;28;20059;-31
2023/08/25 01:01:07;;;;;;;4.13;3.50;;;;;;;;;;5072948;28;20458;-34
2023/08/25 01:03:35;;;;;;;3.60;3.10;;;22.20;88.00;;;;;;5071324;28;20047;-31
2023/08/25 01:06:02;;;;;;;4.53;3.33;;;;;;;;;;5073127;28;20074;-30
2023/08/25 01:08:29;;;;;;;4.03;3.40;;;22.60;82.30;;;;;;5072579;28;20131;-32
2023/08/25 01:11:02;;;;;;;5.30;3.45;;;22.20;72.10;;;;;;5065570;28;20459;-31
2023/08/25 01:13:32;;;;;;;4.85;3.17;;;22.40;72.20;;;;;;5064783;28;20055;-34
2023/08/25 01:15:59;;;;;;;3.90;3.35;;;;;;;;;;5072658;28;20231;-32
2023/08/25 01:18:29;;;;;;;3.60;3.30;;;22.40;88.20;;;;;;5072582;28;20052;-31
2023/08/25 01:20:56;;;;;;;4.35;3.35;;;22.10;73.30;;;;;;5072630;28;20056;-31
2023/08/25 01:23:28;;;;;;;5.43;3.60;;;22.20;72.10;;;;;;5072436;28;20044;-32
2023/08/25 01:25:56;;;;;;;5.20;3.88;;;21.70;88.20;;;;;;5056494;28;20080;-31
2023/08/25 01:28:23;;;;;;;5.05;3.67;;;21.70;77.00;;;;;;5052663;28;20131;-32
2023/08/25 01:30:54;;;;;;;4.80;3.95;;;;;;;;;;5052100;28;20136;-32
2023/08/25 01:33:21;;;;;;;4.97;3.67;;;22.10;84.20;;;;;;5059742;28;20486;-32
2023/08/25 01:35:56;;;;;;;3.75;3.33;;;22.60;74.70;;;;;;5071358;28;20044;-31
2023/08/25 01:38:24;;;;;;;;;;;22.40;72.60;;;;;;5072853;28;20053;-31
2023/08/25 01:40:52;;;;;;;3.95;3.53;;;22.20;72.30;;;;;;5071903;28;20003;-31
2023/08/25 01:43:22;;;;;;;4.95;3.70;;;22.20;72.20;;;;;;5071625;28;20242;-31
2023/08/25 01:45:49;;;;;;;4.70;3.38;;;21.80;88.40;;;;;;5072075;28;20052;-31
2023/08/25 01:48:16;;;;;;;4.32;3.70;;;;;;;;;;5071199;28;20561;-33
2023/08/25 01:50:43;;;;;;;4.93;3.78;;;;;;;;;;5052250;28;20519;-31
2023/08/25 01:53:10;;;;;;;4.80;3.63;;;;;;;;;;5051259;28;20497;-35
2023/08/25 01:55:37;;;;;;;3.80;3.40;;;23.30;79.00;;;;;;5068587;28;20115;-31
2023/08/25 01:58:05;;;;;;;4.40;3.30;;;;;;;;;;5071848;28;20078;-34
2023/08/25 02:00:33;;;;;;;4.38;3.70;;;21.90;88.00;;;;;;5071908;28;20128;-30
2023/08/25 02:02:59;;;;;;;4.95;3.45;;;21.50;80.20;;;;;;5070527;28;20127;-31
2023/08/25 02:05:27;;;;;;;3.83;3.15;;;;;;;;;;5071720;28;20060;-31
2023/08/25 02:07:53;;;;;;;5.18;3.65;;;23.30;88.80;;;;;;5071522;28;20087;-31
2023/08/25 02:10:20;;;;;;;4.07;3.38;;;22.40;88.40;;;;;;5069972;28;20174;-32
2023/08/25 02:12:47;;;;;;;4.00;3.40;;;21.80;75.10;;;;;;5071204;28;20058;-30
2023/08/25 02:15:14;;;;;;;4.82;3.65;;;;;;;;;;5071358;28;20127;-31
2023/08/25 02:17:42;;;;;;;5.60;4.22;;;22.20;72.10;;;;;;5071238;28;20127;-31
2023/08/25 02:20:10;;;;;;;5.13;3.70;;;21.20;87.60;;;;;;5071492;28;20123;-30
2023/08/25 02:22:38;;;;;;;6.57;3.67;;;;;;;;;;5070865;28;20091;-31
2023/08/25 02:25:05;;;;;;;4.35;3.30;;;22.40;88.50;;;;;;5070673;28;20547;-31
2023/08/25 02:27:32;;;;;;;5.57;3.83;;;;;;;;;;5071303;28;20135;-31
2023/08/25 02:29:59;;;;;;;4.88;3.70;;;22.40;89.10;;;;;;5071217;28;20080;-31
2023/08/25 02:32:25;;;;;;;4.63;3.70;;;22.60;76.80;;;;;;5070784;28;20468;-32
2023/08/25 02:34:54;;;;;;;4.03;3.50;;;22.20;72.10;;;;;;5071094;28;20127;-31
2023/08/25 02:37:21;;;;;;;6.53;3.40;;;;;;;;;;5070546;28;20123;-31
2023/08/25 02:39:48;;;;;;;4.13;3.45;;;;;;;;;;5070320;28;20076;-33
2023/08/25 02:42:15;;;;;;;3.85;3.35;;;22.00;88.00;;;;;;5070888;28;20119;-32
2023/08/25 02:44:42;;;;;;;4.45;3.60;;;;;;;;;;5070818;28;20132;-34
2023/08/25 02:47:09;;;;;;;4.18;3.67;;;;;;;;;;5070895;28;20581;-34
2023/08/25 02:49:38;;;;;;;3.72;3.13;;;22.10;79.80;;;;;;5070758;28;20084;-31
2023/08/25 02:52:07;;;;;;;4.57;3.58;;;22.40;86.90;;;;;;5069940;28;20098;-30
2023/08/25 02:54:33;;;;;;;3.92;3.53;;;22.50;88.30;;;;;;5071006;28;20101;-30
2023/08/25 02:57:00;;;;;;;4.28;3.60;;;;;;;;;;5070688;28;20131;-32
2023/08/25 02:59:27;;;;;;;4.35;3.70;;;;;;;;;;5070926;28;20139;-30
2023/08/25 03:01:54;;;;;;;4.63;3.50;;;;;;;;;;5070722;28;20131;-34
2023/08/25 03:04:22;;;;;;;4.07;3.28;;;21.60;88.10;;;;;;5070432;28;20565;-30
2023/08/25 03:06:49;;;;;;;4.18;3.65;;;;;;;;;;5063327;28;20078;-34
2023/08/25 03:09:17;;;;;;;5.97;4.20;;;22.20;72.10;;;;;;5050840;28;20477;-33
2023/08/25 03:11:44;;;;;;;3.53;3.20;;;;;;;;;;5050516;28;20423;-32
2023/08/25 03:14:11;;;;;;;4.00;3.60;;;21.70;82.80;;;;;;5050473;28;20768;-32
2023/08/25 03:16:38;;;;;;;5.00;3.55;;;;;;;;;;5050875;28;20141;-31
2023/08/25 03:19:05;;;;;;;4.05;3.28;;;;;;;;;;5050380;28;20131;-34
2023/08/25 03:21:32;;;;;;;4.80;3.40;;;;;;;;;;5064113;28;20127;-31
2023/08/25 03:23:59;;;;;;;4.57;3.80;;;;;;;;;;5070326;28;20047;-31
2023/08/25 03:26:28;;;;;;;4.22;3.67;;;22.30;88.10;;;;;;5072973;28;20045;-30
2023/08/25 03:28:54;;;;;;;3.72;3.38;;;22.40;89.00;;;;;;5074484;28;20573;-33
2023/08/25 03:31:21;;;;;;;3.85;3.30;;;;;;;;;;5073346;28;20131;-34
2023/08/25 03:33:48;;;;;;;4.38;3.65;;;;;;;;;;5074032;28;20147;-31
2023/08/25 03:36:16;;;;;;;5.45;3.58;;;;;;;;;;5057529;28;20127;-34
2023/08/25 03:38:42;;;;;;;4.10;3.70;;;22.70;89.00;;;;;;5074428;28;20498;-31
2023/08/25 03:41:10;;;;;;;4.22;3.55;;;;;;;;;;5074282;28;20052;-30
2023/08/25 03:43:38;;;;;;;4.35;3.58;;;22.20;76.40;;;;;;5074022;28;20045;-31
2023/08/25 03:46:05;;;;;;;5.25;3.58;;;;;;;;;;5074027;28;20132;-31
2023/08/25 03:48:31;;;;;;;5.25;3.78;;;21.70;88.60;;;;;;5073458;28;20055;-30
2023/08/25 03:50:58;;;;;;;4.25;3.53;;;22.00;81.40;;;;;;5074161;28;20131;-31
2023/08/25 03:53:25;;;;;;;4.78;4.15;;;22.40;88.40;;;;;;5074045;28;20135;-31
2023/08/25 03:55:52;;;;;;;4.43;3.55;;;;;;;;;;5074338;28;20062;-31
2023/08/25 03:58:18;;;;;;;4.57;3.80;;;22.90;89.20;;;;;;5074212;28;20136;-32
2023/08/25 04:00:52;;;;;;;4.05;3.40;;;23.00;88.40;;;;;;5073925;28;20059;-31
2023/08/25 04:03:19;;;;;;;5.30;3.75;;;22.30;87.80;;;;;;5072779;28;20532;-31
2023/08/25 04:05:46;;;;;;;6.05;3.88;;;;;;;;;;5074081;28;20083;-30
2023/08/25 04:08:13;;;;;;;4.60;3.80;;;22.50;88.20;;;;;;5074096;28;20048;-30
2023/08/25 04:10:41;;;;;;;4.65;4.00;;;21.60;87.60;;;;;;5073817;28;20576;-30
2023/08/25 04:13:07;;;;;;;4.65;3.80;;;22.10;87.90;;;;;;5073649;28;20052;-30
2023/08/25 04:15:34;;;;;;;4.07;3.60;;;;;;;;;;5073362;28;20858;-31
2023/08/25 04:18:03;;;;;;;4.63;3.83;;;22.10;71.80;;;;;;5053666;28;20099;-31
2023/08/25 04:20:29;;;;;;;5.68;4.20;;;22.90;88.20;;;;;;5053825;28;20132;-32
2023/08/25 04:22:56;;;;;;;3.83;3.40;;;22.10;88.90;;;;;;5072817;28;20144;-31
2023/08/25 04:25:25;;;;;;;4.57;3.97;;;;;;;;;;5073799;28;20131;-34
2023/08/25 04:27:52;;;;;;;4.88;4.15;;;22.30;85.70;;;;;;5073451;28;20135;-31
2023/08/25 04:30:22;;;;;;;5.32;4.10;;;;;;;;;;5073069;28;20074;-33
2023/08/25 04:32:49;;;;;;;4.43;4.03;;;;;;;;;;5073152;28;20044;-33
2023/08/25 04:35:17;;;;;;;6.70;3.95;;;22.40;88.10;;;;;;5073649;28;20131;-31
2023/08/25 04:37:47;;;;;;;5.28;3.95;;;22.50;88.90;;;;;;5072993;28;20255;-30
2023/08/25 04:40:14;;;;;;;4.47;4.00;;;;;;;;;;5064886;28;20044;-31
2023/08/25 04:42:41;;;;;;;4.75;4.00;;;22.40;88.10;;;;;;5064020;28;20041;-30
2023/08/25 04:45:09;;;;;;;4.43;3.92;;;23.00;72.40;;;;;;5061549;28;20577;-33
2023/08/25 04:47:37;;;;;;;4.50;4.05;;;;;;;;;;5063799;28;20051;-31
2023/08/25 04:50:04;;;;;;;4.82;4.10;;;22.20;76.10;;;;;;5062591;28;20566;-31
2023/08/25 04:52:33;;;;;;;5.70;4.00;;;21.70;88.10;;;;;;5059032;28;20469;-30
2023/08/25 04:55:01;;;;;;;5.53;4.22;;;;;;;;;;5053234;28;20132;-32
2023/08/25 04:57:27;;;;;;;5.88;4.30;;;21.90;88.00;;;;;;5053478;28;20498;-30
2023/08/25 04:59:54;;;;;;;4.65;4.15;;;;;;;;;;5069803;28;20132;-32
2023/08/25 05:02:21;;;;;;;4.60;4.07;;;21.90;73.80;;;;;;5062881;28;20135;-30
2023/08/25 05:04:48;;;;;;;4.40;4.00;;;;;;;;;;5062543;28;20124;-33
2023/08/25 05:07:15;;;;;;;5.32;4.40;;;21.90;74.20;;;;;;5061283;28;20131;-32
2023/08/25 05:09:43;;;;;;;5.25;4.30;;;22.50;88.60;;;;;;5063277;28;20051;-30
2023/08/25 05:12:09;;;;;;;5.07;4.55;;;23.00;88.50;;;;;;5063040;28;20055;-30
2023/08/25 05:14:37;;;;;;;4.45;3.80;;;;;;;;;;5053995;28;20053;-33
2023/08/25 05:17:05;;;;;;;4.82;4.30;;;21.80;88.10;;;;;;5063896;28;20048;-30
2023/08/25 05:19:31;;;;;;;4.60;3.97;;;21.90;84.80;;;;;;5072816;28;20114;-32
2023/08/25 05:21:58;;;;;;;4.63;4.03;;;;;;;;;;5072744;28;20066;-32
2023/08/25 05:24:26;;;;;;;5.30;4.45;;;22.10;87.90;;;;;;5072557;28;20127;-30
2023/08/25 05:26:54;;;;;;;4.95;4.43;;;22.10;71.70;;;;;;5072477;28;20131;-33
2023/08/25 05:29:21;;;;;;;5.63;4.55;;;22.60;75.80;;;;;;5072738;28;20094;-31
2023/08/25 05:31:48;;;;;;;5.25;4.50;;;21.90;88.10;;;;;;5070701;28;20510;-30
2023/08/25 05:34:15;;;;;;;6.32;4.38;;;22.10;71.70;;;;;;5061491;28;20037;-33
2023/08/25 05:36:42;;;;;;;5.40;4.45;;;;;;;;;;5059562;28;20133;-33
2023/08/25 05:39:08;;;;;;;5.75;4.40;;;21.90;87.90;;;;;;5061729;28;20561;-30
2023/08/25 05:41:35;;;;;;;8.02;5.53;;;;;;;;;;5064115;28;20424;-34
2023/08/25 05:44:04;;;;;;;5.43;4.63;;;22.20;88.90;;;;;;5062808;28;20176;-30
2023/08/25 05:46:31;;;;;;;6.55;5.00;;;22.30;88.10;;;;;;5051860;28;20060;-31
2023/08/25 05:48:58;;;;;;;5.28;4.78;;;;;;;;;;5051785;28;20045;-35
2023/08/25 05:51:25;;;;;;;6.22;5.00;;;;;;;;;;5051931;28;20136;-31
2023/08/25 05:53:52;;;;;;;7.93;5.05;;;;;;;;;;5051869;28;20049;-33
2023/08/25 05:56:19;;;;;;;5.70;4.90;;;22.40;75.80;;;;;;5052170;28;20127;-30
2023/08/25 05:58:45;;;;;;;7.75;5.00;;;21.70;83.60;;;;;;5051507;28;20727;-31
2023/08/25 06:01:13;;;;;;;7.78;5.47;;;21.90;77.90;;;;;;5052228;28;20124;-31
2023/08/25 06:03:40;;;;;;;6.22;5.30;;;21.80;75.70;;;;;;5052470;28;20566;-32
2023/08/25 06:06:07;;;;;;;6.03;4.90;;;22.20;84.80;;;;;;5060352;28;20375;-30
2023/08/25 06:08:34;;;;;;;6.82;5.75;;;22.10;88.10;;;;;;5062145;28;20763;-29
2023/08/25 06:11:01;;;;;;;7.55;5.45;;;22.40;88.10;;;;;;5061719;28;20049;-32
2023/08/25 06:13:27;;;;;;;6.30;5.40;;;22.40;88.70;;;;;;5059824;28;20063;-31
2023/08/25 06:15:54;;;;;;;7.03;5.35;;;;;;;;;;5051550;28;20124;-36
2023/08/25 06:18:22;;;;;;;8.75;5.97;;;21.80;87.80;;;;;;5051640;28;20063;-31
2023/08/25 06:20:50;;;;;;;6.40;5.32;;;21.70;87.90;;;;;;5060705;28;20535;-30
2023/08/25 06:23:18;;;;;;;7.22;5.25;;;;;;;;;;5061072;28;20129;-34
2023/08/25 06:25:45;;;;;;;7.18;5.97;;;;;;;;;;5059210;28;20040;-34
2023/08/25 06:28:12;;;;;;;7.55;5.80;;;;;;;;;;5061569;28;20132;-32
2023/08/25 06:30:41;;;;;;;8.75;5.90;;;22.10;71.90;;;;;;5059843;28;20135;-36
2023/08/25 06:33:08;;;;;;;7.70;5.80;;;;;;;;;;5060842;28;20051;-33
2023/08/25 06:35:37;;;;;;;8.25;5.80;;;22.40;86.20;;;;;;5061771;28;20079;-31
2023/08/25 06:38:04;;;;;;;9.02;6.53;;;21.50;88.30;;;;;;5059888;28;20134;-30
2023/08/25 06:40:33;;;;;;;7.25;6.03;;;21.60;74.80;;;;;;5061001;28;20059;-34
2023/08/25 06:43:01;;;;;;;7.88;5.88;;;;;;;;;;5059280;28;20079;-32
2023/08/25 06:45:28;;;;;;;8.32;6.13;;;21.80;77.10;;;;;;5061223;28;20052;-31
2023/08/25 06:47:55;;;;;;;8.23;6.55;;;;;;;;;;5061310;28;20053;-35
2023/08/25 06:50:22;;;;;;;7.93;5.88;;;22.10;72.70;;;;;;5059824;28;20139;-35
2023/08/25 06:52:50;;;;;;;7.30;5.63;;;22.20;75.70;;;;;;5059912;28;20132;-34
2023/08/25 06:55:17;;;;;;;8.15;6.15;;;23.20;88.70;;;;;;5050086;28;20199;-30
2023/08/25 06:57:45;;;;;;;7.75;6.38;;;22.10;88.90;;;;;;5050145;28;20048;-30
2023/08/25 07:00:13;;;;;;;8.88;6.35;;;22.10;71.90;;;;;;5062462;28;20055;-34
2023/08/25 07:02:41;;;;;;;9.38;7.13;;;;;;;;;;5059876;28;20048;-35
2023/08/25 07:05:08;;;;;;;9.95;7.90;;;;;;;;;;5053366;28;20044;-35
2023/08/25 07:07:36;;;;;;;8.48;6.40;;;22.60;88.70;;;;;;5051057;28;20048;-31
2023/08/25 07:10:05;;;;;;;7.80;6.20;;;22.10;71.90;;;;;;5051908;28;20049;-35
2023/08/25 07:12:31;;;;;;;8.30;6.50;;;22.50;88.60;;;;;;5050824;28;20060;-30
2023/08/25 07:14:58;;;;;;;7.85;6.35;;;;;;;;;;5050784;28;20124;-33
2023/08/25 07:17:25;;;;;;;8.60;6.25;;;;;;;;;;5050789;28;20136;-33
2023/08/25 07:19:53;;;;;;;8.38;6.13;;;;;;;;;;5050578;28;20143;-36
2023/08/25 07:22:20;;;;;;;8.38;6.10;;;22.40;88.10;;;;;;5064819;28;20052;-39
2023/08/25 07:24:50;;;;;;;11.77;7.28;;;22.90;88.40;;;;;;5064193;28;20042;-40
2023/08/25 07:27:18;;;;;;;9.52;6.60;;;22.20;71.90;;;;;;5059642;28;20048;-37
2023/08/25 07:29:45;;;;;;;9.45;6.53;;;;;;;;;;5060797;28;20129;-32
2023/08/25 07:32:11;;;;;;;7.68;6.18;;;21.60;78.90;;;;;;5060861;28;20131;-36
2023/08/25 07:34:38;;;;;;;6.93;6.15;;;22.40;88.00;;;;;;5057610;28;20063;-38
2023/08/25 07:37:05;;;;;;;9.63;6.30;;;21.90;73.80;;;;;;5058503;28;20045;-36
2023/08/25 07:39:32;;;;;;;8.27;6.70;;;;;;;;;;5059048;28;20124;-37
2023/08/25 07:41:59;;;;;;;6.97;5.88;;;;;;;;;;5057962;28;20529;-36
2023/08/25 07:44:27;;;;;;;6.47;5.45;;;22.90;81.00;;;;;;5060493;28;20446;-38
2023/08/25 07:46:54;;;;;;;7.85;5.75;;;22.50;82.60;;;;;;5053183;28;20140;-36
2023/08/25 07:49:20;;;;;;;7.13;6.00;;;22.20;88.00;;;;;;5062161;28;20453;-39
2023/08/25 07:51:47;;;;;;;7.13;5.75;;;;;;;;;;5070329;28;20106;-37
2023/08/25 07:54:14;;;;;;;8.68;6.05;;;;;;;;;;5070096;28;20130;-40
2023/08/25 07:56:42;;;;;;;7.82;6.28;;;;;;;;;;5070687;28;20131;-35
2023/08/25 07:59:10;;;;;;;7.22;5.30;;;22.00;87.90;;;;;;5055735;28;20414;-40
2023/08/25 08:01:38;;;;;;;6.47;5.28;;;22.30;72.00;;;;;;5050202;28;20053;-36
2023/08/25 08:04:07;;;;;;;6.75;5.55;;;22.00;71.90;;;;;;5049867;28;20497;-39
2023/08/25 08:06:34;;;;;;;6.35;5.55;;;22.60;73.80;;;;;;5050417;28;20057;-37
2023/08/25 08:09:00;;;;;;;7.43;5.50;;;22.00;88.10;;;;;;5050439;28;20490;-36
2023/08/25 08:11:27;;;;;;;7.88;5.63;;;22.70;89.10;;;;;;5050951;28;20084;-39
2023/08/25 08:13:54;;;;;;;7.07;5.50;;;;;;;;;;5054705;28;20474;-36
2023/08/25 08:16:21;;;;;;;5.97;4.93;;;22.00;86.80;;;;;;5056651;28;20098;-39
2023/08/25 08:18:49;;;;;;;7.68;5.45;;;22.30;71.90;;;;;;5064452;28;20045;-37
2023/08/25 08:21:16;;;;;;;6.97;5.30;;;22.60;88.30;;;;;;5068843;28;20175;-40
2023/08/25 08:23:42;;;;;;;6.80;4.93;;;21.40;77.70;;;;;;5073470;28;20127;-35
2023/08/25 08:26:09;;;;;;;7.93;5.00;;;22.90;88.30;;;;;;5073469;28;20131;-35
2023/08/25 08:28:36;;;;;;;8.18;5.18;;;;;;;;;;5068414;28;20048;-38
2023/08/25 08:31:05;;;;;;;6.82;5.57;;;22.60;86.10;;;;;;5067391;28;20141;-35
2023/08/25 08:33:32;;;;;;;6.88;5.38;;;;;;;;;;5053022;28;20460;-34
2023/08/25 08:36:00;;;;;;;7.28;5.28;;;22.00;76.30;;;;;;5054541;28;20388;-34
2023/08/25 08:38:27;;;;;;;7.45;5.82;;;;;;;;;;5073496;28;20131;-36
2023/08/25 08:41:00;;;;;;;7.47;5.63;;;21.50;87.50;;;;;;5073252;28;20132;-37
2023/08/25 08:43:27;;;;;;;7.65;5.50;;;22.00;83.40;;;;;;5073219;28;20127;-35
2023/08/25 08:45:54;;;;;;;8.15;6.10;;;;;;;;;;5072758;28;20128;-33
2023/08/25 08:48:21;;;;;;;7.85;5.50;;;22.30;71.80;;;;;;5073318;28;20157;-35
2023/08/25 08:50:48;;;;;;;9.00;6.40;;;21.50;87.80;;;;;;5073424;28;20055;-35
2023/08/25 08:53:16;;;;;;;9.60;6.47;;;22.30;71.80;;;;;;5073327;28;20044;-36
2023/08/25 08:55:45;;;;;;;7.53;6.30;;;22.30;71.80;;;;;;5073184;28;20055;-33
2023/08/25 08:58:12;;;;;;;8.98;5.78;;;23.40;83.10;;;;;;5071765;28;20136;-39
2023/08/25 09:00:40;;;;;;;8.05;6.28;;;22.10;82.60;;;;;;5053311;28;20064;-36
2023/08/25 09:03:09;;;;;;;8.13;5.97;;;23.30;79.70;;;;;;5052975;28;20056;-35
2023/08/25 09:05:36;;;;;;;8.82;5.93;;;;;;;;;;5053286;28;20475;-33
2023/08/25 09:08:06;;;;;;;9.90;6.40;;;22.30;87.90;;;;;;5052812;28;20128;-38
2023/08/25 09:10:34;;;;;;;8.90;6.03;;;21.70;88.00;;;;;;5053217;28;20056;-35
2023/08/25 09:13:01;;;;;;;9.18;6.13;;;22.10;87.90;;;;;;5052738;28;20067;-35
2023/08/25 09:15:28;;;;;;;8.07;5.90;;;22.30;71.80;;;;;;5057721;28;20124;-34
2023/08/25 09:18:00;;;;;;;9.32;6.47;;;22.60;79.00;;;;;;5066531;28;20053;-35
2023/08/25 09:20:27;;;;;;;8.77;6.28;;;22.30;88.50;;;;;;5060441;28;20055;-35
2023/08/25 09:22:55;;;;;;;8.18;5.63;;;22.30;74.70;;;;;;5058734;28;20120;-35
2023/08/25 09:25:22;;;;;;;8.95;6.13;;;;;;;;;;5062148;28;20048;-33
2023/08/25 09:27:55;;;;;;;10.43;6.00;;;21.70;87.50;;;;;;5062850;28;20051;-36
2023/08/25 09:30:22;;;;;;;9.23;5.78;;;;;;;;;;5060791;28;20176;-36
2023/08/25 09:32:49;;;;;;;10.52;6.53;;;21.40;87.80;;;;;;5062049;28;20120;-34
2023/08/25 09:35:21;;;;;;;11.73;6.43;;;22.30;71.90;;;;;;5061365;28;20119;-34
2023/08/25 09:37:49;;;;;;;8.55;5.55;;;;;;;;;;5058709;28;20134;-38
2023/08/25 09:40:15;;;;;;;9.85;5.93;;;22.70;86.90;;;;;;5061259;28;20127;-39
2023/08/25 09:42:42;;;;;;;10.32;6.10;;;22.40;88.20;;;;;;5061261;28;20480;-35
2023/08/25 09:45:11;;;;;;;9.32;5.85;;;22.00;76.70;;;;;;5065993;28;20123;-35
2023/08/25 09:47:41;;;;;;;7.72;6.05;;;21.90;88.30;;;;;;5064952;28;20135;-39
2023/08/25 09:50:08;;;;;;;10.25;6.10;;;22.10;73.80;;;;;;5063166;28;20170;-36
2023/08/25 09:52:37;;;;;;;7.57;5.00;;;22.80;88.90;;;;;;5061173;28;20123;-31
2023/08/25 09:55:05;;;;;;;7.40;5.68;;;22.70;88.40;;;;;;5064499;28;20044;-31
2023/08/25 09:57:32;;;;;;;8.25;5.50;;;;;;;;;;5062508;28;20041;-32
2023/08/25 09:59:59;;;;;;;8.20;5.63;;;22.20;89.10;;;;;;5062372;28;20120;-31
2023/08/25 10:02:27;;;;;;;11.65;6.32;;;22.10;79.30;;;;;;5063590;28;20131;-32
2023/08/25 10:04:55;;;;;;;8.00;5.65;;;22.20;80.20;;;;;;5059637;28;20548;-31
2023/08/25 10:07:21;;;;;;;7.93;5.63;;;22.30;72.20;;;;;;5061976;28;20107;-32
2023/08/25 10:09:48;;;;;;;8.70;5.55;;;21.50;87.80;;;;;;5060679;28;20130;-32
2023/08/25 10:12:15;;;;;;;7.35;5.65;;;22.50;77.50;;;;;;5058062;28;20048;-31
2023/08/25 10:14:42;;;;;;;7.30;5.50;;;;;;;;;;5063068;28;20132;-34
2023/08/25 10:17:09;;;;;;;8.00;5.60;;;23.00;89.60;;;;;;5070229;28;20135;-32
2023/08/25 10:19:38;;;;;;;7.03;5.03;;;22.40;72.30;;;;;;5051596;28;20052;-32
2023/08/25 10:22:05;;;;;;;7.50;5.10;;;22.10;88.10;;;;;;5069785;28;20064;-31
2023/08/25 10:24:32;;;;;;;5.93;4.78;;;;;;;;;;5071510;28;20135;-33
2023/08/25 10:26:59;;;;;;;7.68;5.30;;;21.60;88.70;;;;;;5058327;28;20048;-31
2023/08/25 10:29:25;;;;;;;7.18;5.18;;;22.30;83.20;;;;;;5051590;28;20053;-31
2023/08/25 10:31:59;;;;;;;6.47;5.00;;;23.60;72.90;;;;;;5051235;28;20135;-33
2023/08/25 10:34:32;;;;;;;6.75;4.88;;;22.30;78.00;;;;;;5050922;28;20053;-30
2023/08/25 10:37:09;;;;;;;6.53;5.07;;;22.40;82.80;;;;;;5060532;28;20048;-32
2023/08/25 10:39:46;;;;;;;5.63;4.50;;;22.40;72.40;;;;;;5070179;28;20148;-32
2023/08/25 10:42:13;;;;;;;8.02;5.40;;;22.40;73.90;;;;;;5071205;28;20048;-32
2023/08/25 10:44:40;;;;;;;7.25;5.25;;;;;;;;;;5071146;28;20075;-32
2023/08/25 10:47:08;;;;;;;6.80;4.60;;;22.30;88.30;;;;;;5059034;28;20048;-31
2023/08/25 10:49:38;;;;;;;12.35;4.78;;;22.40;72.30;;;;;;5060790;28;20045;-30
2023/08/25 10:52:16;;;;;;;6.80;4.97;;;22.40;72.40;;;;;;5057822;28;20124;-34
2023/08/25 10:54:42;;;;;;;8.75;5.90;;;22.20;88.80;;;;;;5057213;28;20067;-31
2023/08/25 10:57:22;;;;;;;6.70;5.13;;;22.40;72.50;;;;;;5070944;28;20098;-33
2023/08/25 10:59:55;;;;;;;9.82;5.15;;;22.40;72.50;;;;;;5070605;28;20612;-33
2023/08/25 11:02:34;;;;;;;10.27;5.07;;;22.40;72.50;;;;;;5069149;28;20494;-31
2023/08/25 11:05:38;;;;;;;5.72;4.80;;;22.40;72.60;;;;;;5061025;28;20097;-32
2023/08/25 11:08:07;;;;;;;5.63;4.38;;;22.50;89.10;;;;;;4999674;28;20124;-31
2023/08/25 11:10:35;;;;;;;6.70;4.95;;;22.50;73.30;;;;;;5059907;28;20048;-32
2023/08/25 11:13:07;;;;;;;5.68;4.63;;;22.10;88.90;;;;;;5070723;28;20075;-31
2023/08/25 11:15:36;;;;;;;6.07;4.72;;;22.50;72.30;;;;;;5070613;28;20136;-34
2023/08/25 11:18:03;;;;;;;6.20;4.68;;;;;;;;;;5070594;28;20127;-31
2023/08/25 11:20:30;;;;;;;5.90;4.32;;;;;;;;;;5070846;28;20072;-35
2023/08/25 11:22:57;;;;;;;5.68;4.55;;;22.40;74.40;;;;;;5069517;28;20132;-31
2023/08/25 11:25:25;;;;;;;5.97;4.28;;;22.40;76.90;;;;;;5067897;28;20453;-31
2023/08/25 11:27:52;;;;;;;6.53;4.28;;;22.30;72.40;;;;;;5053030;28;20541;-34
2023/08/25 11:30:19;;;;;;;7.30;4.47;;;22.50;88.00;;;;;;5057549;28;20131;-31
2023/08/25 11:32:46;;;;;;;5.75;4.70;;;;;;;;;;5068689;28;20048;-35
2023/08/25 11:35:13;;;;;;;7.35;4.35;;;22.30;86.40;;;;;;5068483;28;20040;-31
2023/08/25 11:37:40;;;;;;;5.25;4.60;;;21.90;83.90;;;;;;5068628;28;20055;-31
2023/08/25 11:40:12;;;;;;;5.32;4.00;;;22.50;72.00;;;;;;5069405;28;20131;-34
2023/08/25 11:42:40;;;;;;;5.78;4.43;;;23.10;74.30;;;;;;5069006;28;20052;-32
2023/08/25 11:45:08;;;;;;;6.10;4.50;;;22.80;86.40;;;;;;5069059;28;20044;-31
2023/08/25 11:47:35;;;;;;;6.57;4.38;;;22.30;76.80;;;;;;5072369;28;20585;-31
2023/08/25 11:50:03;;;;;;;7.13;4.18;;;;;;;;;;5070349;28;20060;-31
2023/08/25 11:52:30;;;;;;;7.07;4.38;;;;;;;;;;5053779;28;20099;-34
2023/08/25 11:54:57;;;;;;;5.43;4.10;;;;;;;;;;5053785;28;20127;-35
2023/08/25 11:57:33;;;;;;;7.55;4.40;;;22.50;72.00;;;;;;5053616;28;20072;-32
2023/08/25 12:00:02;;;;;;;6.30;4.53;;;22.10;88.20;;;;;;5062964;28;20401;-30
2023/08/25 12:02:29;;;;;;;5.65;4.28;;;;;;;;;;5059554;28;20453;-34
2023/08/25 12:04:57;;;;;;;5.68;4.25;;;22.50;71.90;;;;;;5060277;28;20049;-32
2023/08/25 12:07:24;;;;;;;4.93;4.20;;;;;;;;;;5064776;28;20115;-32
2023/08/25 12:09:53;;;;;;;6.13;4.53;;;22.50;71.90;;;;;;5062959;28;20119;-32
2023/08/25 12:12:20;;;;;;;4.97;4.43;;;;;;;;;;5062466;28;20124;-33
2023/08/25 12:14:47;;;;;;;5.63;4.32;;;;;;;;;;5064899;28;20045;-30
2023/08/25 12:17:23;;;;;;;7.80;4.55;;;22.60;77.50;;;;;;5062984;28;20040;-31
2023/08/25 12:19:50;;;;;;;7.07;4.60;;;22.30;88.00;;;;;;5062614;28;20128;-31
2023/08/25 12:22:17;;;;;;;6.45;4.70;;;22.40;88.20;;;;;;5064782;28;20044;-30
2023/08/25 12:24:44;;;;;;;6.18;4.57;;;;;;;;;;5062069;28;20143;-35
2023/08/25 12:27:10;;;;;;;6.22;4.35;;;21.80;88.00;;;;;;5061352;28;20120;-31
2023/08/25 12:29:37;;;;;;;6.30;4.72;;;;;;;;;;5053807;28;20127;-31
2023/08/25 12:32:05;;;;;;;7.50;4.57;;;23.10;89.10;;;;;;5064015;28;20132;-31
2023/08/25 12:34:33;;;;;;;7.90;4.65;;;22.40;74.00;;;;;;5073600;28;20462;-30
2023/08/25 12:36:59;;;;;;;7.03;4.43;;;22.90;88.30;;;;;;5073205;28;20123;-30
2023/08/25 12:39:26;;;;;;;4.90;4.05;;;;;;;;;;5073393;28;20446;-33
2023/08/25 12:41:55;;;;;;;5.88;4.25;;;23.20;88.80;;;;;;5072998;28;20136;-30
2023/08/25 12:44:22;;;;;;;6.50;4.35;;;;;;;;;;5072763;28;20426;-36
2023/08/25 12:46:49;;;;;;;5.07;3.78;;;;;;;;;;5072637;28;20124;-31
2023/08/25 12:49:16;;;;;;;6.80;4.30;;;;;;;;;;5073267;28;20136;-36
2023/08/25 12:51:44;;;;;;;6.20;4.20;;;22.50;72.10;;;;;;5072941;28;20127;-32
2023/08/25 12:54:13;;;;;;;7.15;4.70;;;22.10;76.90;;;;;;5063203;28;20456;-31
2023/08/25 12:56:39;;;;;;;6.63;4.30;;;22.50;88.00;;;;;;5053044;28;20045;-30
2023/08/25 12:59:06;;;;;;;6.45;4.63;;;;;;;;;;5055926;28;20132;-33
2023/08/25 13:01:34;;;;;;;5.72;4.15;;;;;;;;;;5073200;28;20123;-33
2023/08/25 13:04:01;;;;;;;5.97;3.97;;;;;;;;;;5072611;28;20048;-40
2023/08/25 13:06:28;;;;;;;6.45;4.55;;;23.20;78.70;;;;;;5073005;28;20048;-31
2023/08/25 13:08:56;;;;;;;7.05;4.38;;;22.50;71.90;;;;;;5072958;28;20049;-31
2023/08/25 13:11:23;;;;;;;6.43;4.70;;;;;;;;;;5072701;28;20132;-30
2023/08/25 13:13:50;;;;;;;8.80;4.40;;;23.00;88.50;;;;;;5070724;28;20128;-32
2023/08/25 13:16:16;;;;;;;5.63;4.25;;;22.30;87.90;;;;;;5061237;28;20127;-30
2023/08/25 13:18:43;;;;;;;8.27;4.63;;;;;;;;;;5061918;28;20143;-35
2023/08/25 13:21:11;;;;;;;9.45;4.47;;;22.90;88.10;;;;;;5064182;28;20119;-30
2023/08/25 13:23:38;;;;;;;8.02;4.07;;;;;;;;;;5060790;28;20052;-34
2023/08/25 13:26:06;;;;;;;6.70;4.60;;;22.60;72.00;;;;;;5062289;28;20119;-30